Terminal Aerodrome Forecast
Issued by NWS St Louis, MO

Home | Current Version | Previous Version | Text Only | Print | Product List | Glossary On
Versions: 1 2 3 4 5 6 7 8 9 10 11 12 13 14 15
000
FTUS43 KLSX 101100
TAFCOU
TAF
KCOU 101120Z 1012/1112 VRB04KT P6SM SCT120
     FM101500 12008KT P6SM SCT250
     FM110900 16010KT P6SM BKN090=

USA.gov is the U.S. government's official web portal to all federal, state and local government web resources and services.